sensor_id;sensor_type;location;lat;lon;timestamp;P1;durP1;ratioP1;P2;durP2;ratioP2
13607;SDS011;6875;50.852;5.672;2023-04-24T00:01:30;19.30;;;13.03;;
13607;SDS011;6875;50.852;5.672;2023-04-24T00:03:56;15.70;;;12.17;;
13607;SDS011;6875;50.852;5.672;2023-04-24T00:06:24;22.80;;;13.37;;
13607;SDS011;6875;50.852;5.672;2023-04-24T00:08:58;19.83;;;15.43;;
13607;SDS011;6875;50.852;5.672;2023-04-24T00:11:27;21.47;;;15.07;;
13607;SDS011;6875;50.852;5.672;2023-04-24T00:13:54;22.60;;;15.90;;
13607;SDS011;6875;50.852;5.672;2023-04-24T00:16:21;24.57;;;16.33;;
13607;SDS011;6875;50.852;5.672;2023-04-24T00:18:47;27.80;;;19.27;;
13607;SDS011;6875;50.852;5.672;2023-04-24T00:21:15;31.77;;;19.67;;
13607;SDS011;6875;50.852;5.672;2023-04-24T00:23:42;34.77;;;20.13;;
13607;SDS011;6875;50.852;5.672;2023-04-24T00:26:09;33.23;;;21.27;;
13607;SDS011;6875;50.852;5.672;2023-04-24T00:28:37;36.67;;;21.67;;
13607;SDS011;6875;50.852;5.672;2023-04-24T00:31:04;40.13;;;24.83;;
13607;SDS011;6875;50.852;5.672;2023-04-24T00:33:31;41.77;;;25.07;;
13607;SDS011;6875;50.852;5.672;2023-04-24T00:35:57;44.40;;;24.70;;
13607;SDS011;6875;50.852;5.672;2023-04-24T00:38:24;43.83;;;25.67;;
13607;SDS011;6875;50.852;5.672;2023-04-24T00:40:51;40.63;;;25.80;;
13607;SDS011;6875;50.852;5.672;2023-04-24T00:43:19;38.27;;;24.47;;
13607;SDS011;6875;50.852;5.672;2023-04-24T00:45:46;40.13;;;24.57;;
13607;SDS011;6875;50.852;5.672;2023-04-24T00:48:13;38.57;;;23.47;;
13607;SDS011;6875;50.852;5.672;2023-04-24T00:50:41;34.63;;;22.80;;
13607;SDS011;6875;50.852;5.672;2023-04-24T00:53:08;33.73;;;22.63;;
13607;SDS011;6875;50.852;5.672;2023-04-24T00:55:34;34.40;;;21.90;;
13607;SDS011;6875;50.852;5.672;2023-04-24T00:58:02;33.00;;;22.23;;
13607;SDS011;6875;50.852;5.672;2023-04-24T01:00:28;33.33;;;22.97;;
13607;SDS011;6875;50.852;5.672;2023-04-24T01:02:57;30.40;;;21.17;;
13607;SDS011;6875;50.852;5.672;2023-04-24T01:05:24;33.70;;;22.67;;
13607;SDS011;6875;50.852;5.672;2023-04-24T01:07:50;32.93;;;21.97;;
13607;SDS011;6875;50.852;5.672;2023-04-24T01:10:17;31.27;;;20.50;;
13607;SDS011;6875;50.852;5.672;2023-04-24T01:12:45;31.07;;;21.27;;
13607;SDS011;6875;50.852;5.672;2023-04-24T01:15:12;30.00;;;21.50;;
13607;SDS011;6875;50.852;5.672;2023-04-24T01:17:38;30.60;;;21.80;;
13607;SDS011;6875;50.852;5.672;2023-04-24T01:20:08;38.37;;;21.37;;
13607;SDS011;6875;50.852;5.672;2023-04-24T01:22:37;30.03;;;20.53;;
13607;SDS011;6875;50.852;5.672;2023-04-24T01:25:03;30.37;;;22.37;;
13607;SDS011;6875;50.852;5.672;2023-04-24T01:27:31;33.07;;;22.70;;
13607;SDS011;6875;50.852;5.672;2023-04-24T01:29:57;29.40;;;22.00;;
13607;SDS011;6875;50.852;5.672;2023-04-24T01:32:24;35.17;;;23.93;;
13607;SDS011;6875;50.852;5.672;2023-04-24T01:34:51;30.17;;;22.10;;
13607;SDS011;6875;50.852;5.672;2023-04-24T01:37:17;33.33;;;24.10;;
13607;SDS011;6875;50.852;5.672;2023-04-24T01:39:46;33.77;;;24.20;;
13607;SDS011;6875;50.852;5.672;2023-04-24T01:42:12;36.93;;;25.77;;
13607;SDS011;6875;50.852;5.672;2023-04-24T01:44:39;35.50;;;24.20;;
13607;SDS011;6875;50.852;5.672;2023-04-24T01:47:06;33.73;;;25.17;;
13607;SDS011;6875;50.852;5.672;2023-04-24T01:49:33;33.43;;;23.67;;
13607;SDS011;6875;50.852;5.672;2023-04-24T01:52:00;32.30;;;23.03;;
13607;SDS011;6875;50.852;5.672;2023-04-24T01:54:26;32.37;;;22.00;;
13607;SDS011;6875;50.852;5.672;2023-04-24T01:56:54;34.17;;;23.30;;
13607;SDS011;6875;50.852;5.672;2023-04-24T01:59:21;30.00;;;21.03;;
13607;SDS011;6875;50.852;5.672;2023-04-24T02:01:49;30.93;;;19.50;;
13607;SDS011;6875;50.852;5.672;2023-04-24T02:04:15;29.03;;;19.67;;
13607;SDS011;6875;50.852;5.672;2023-04-24T02:06:42;28.93;;;21.27;;
13607;SDS011;6875;50.852;5.672;2023-04-24T02:09:08;32.03;;;21.50;;
13607;SDS011;6875;50.852;5.672;2023-04-24T02:11:35;28.40;;;20.33;;
13607;SDS011;6875;50.852;5.672;2023-04-24T02:14:03;30.63;;;21.87;;
13607;SDS011;6875;50.852;5.672;2023-04-24T02:16:30;35.13;;;23.50;;
13607;SDS011;6875;50.852;5.672;2023-04-24T02:18:57;37.03;;;26.40;;
13607;SDS011;6875;50.852;5.672;2023-04-24T02:21:23;39.43;;;26.53;;
13607;SDS011;6875;50.852;5.672;2023-04-24T02:23:50;38.90;;;26.17;;
13607;SDS011;6875;50.852;5.672;2023-04-24T02:26:16;43.13;;;27.60;;
13607;SDS011;6875;50.852;5.672;2023-04-24T02:28:43;40.37;;;27.57;;
13607;SDS011;6875;50.852;5.672;2023-04-24T02:31:11;36.93;;;25.70;;
13607;SDS011;6875;50.852;5.672;2023-04-24T02:33:38;41.40;;;26.43;;
13607;SDS011;6875;50.852;5.672;2023-04-24T02:36:04;45.60;;;27.27;;
13607;SDS011;6875;50.852;5.672;2023-04-24T02:38:31;40.00;;;27.83;;
13607;SDS011;6875;50.852;5.672;2023-04-24T02:40:57;39.50;;;26.27;;
13607;SDS011;6875;50.852;5.672;2023-04-24T02:43:25;39.10;;;25.47;;
13607;SDS011;6875;50.852;5.672;2023-04-24T02:45:52;38.33;;;27.17;;
13607;SDS011;6875;50.852;5.672;2023-04-24T02:48:20;38.17;;;26.70;;
13607;SDS011;6875;50.852;5.672;2023-04-24T02:50:46;38.50;;;26.53;;
13607;SDS011;6875;50.852;5.672;2023-04-24T02:53:13;38.73;;;25.47;;
13607;SDS011;6875;50.852;5.672;2023-04-24T02:55:39;35.67;;;26.27;;
13607;SDS011;6875;50.852;5.672;2023-04-24T02:58:06;45.80;;;26.67;;
13607;SDS011;6875;50.852;5.672;2023-04-24T03:00:32;39.50;;;27.07;;
13607;SDS011;6875;50.852;5.672;2023-04-24T03:02:59;43.93;;;28.90;;
13607;SDS011;6875;50.852;5.672;2023-04-24T03:05:27;45.50;;;28.97;;
13607;SDS011;6875;50.852;5.672;2023-04-24T03:07:53;47.17;;;31.00;;
13607;SDS011;6875;50.852;5.672;2023-04-24T03:10:20;49.83;;;30.80;;
13607;SDS011;6875;50.852;5.672;2023-04-24T03:12:48;48.50;;;30.90;;
13607;SDS011;6875;50.852;5.672;2023-04-24T03:15:15;41.17;;;28.57;;
13607;SDS011;6875;50.852;5.672;2023-04-24T03:17:41;41.03;;;27.40;;
13607;SDS011;6875;50.852;5.672;2023-04-24T03:20:08;37.43;;;27.20;;
13607;SDS011;6875;50.852;5.672;2023-04-24T03:22:36;43.77;;;27.37;;
13607;SDS011;6875;50.852;5.672;2023-04-24T03:25:03;35.93;;;25.60;;
13607;SDS011;6875;50.852;5.672;2023-04-24T03:27:31;41.60;;;24.90;;
13607;SDS011;6875;50.852;5.672;2023-04-24T03:29:57;38.03;;;23.97;;
13607;SDS011;6875;50.852;5.672;2023-04-24T03:32:24;37.37;;;25.47;;
13607;SDS011;6875;50.852;5.672;2023-04-24T03:34:51;35.97;;;23.03;;
13607;SDS011;6875;50.852;5.672;2023-04-24T03:37:18;35.83;;;23.13;;
13607;SDS011;6875;50.852;5.672;2023-04-24T03:39:46;35.03;;;22.83;;
13607;SDS011;6875;50.852;5.672;2023-04-24T03:42:12;32.90;;;23.17;;
13607;SDS011;6875;50.852;5.672;2023-04-24T03:44:39;35.07;;;24.47;;
13607;SDS011;6875;50.852;5.672;2023-04-24T03:47:05;33.17;;;23.13;;
13607;SDS011;6875;50.852;5.672;2023-04-24T03:49:32;35.60;;;23.90;;
13607;SDS011;6875;50.852;5.672;2023-04-24T03:51:59;31.17;;;21.07;;
13607;SDS011;6875;50.852;5.672;2023-04-24T03:54:25;31.13;;;22.27;;
13607;SDS011;6875;50.852;5.672;2023-04-24T03:56:53;35.33;;;23.80;;
13607;SDS011;6875;50.852;5.672;2023-04-24T03:59:20;37.40;;;23.67;;
13607;SDS011;6875;50.852;5.672;2023-04-24T04:01:46;32.93;;;23.07;;
13607;SDS011;6875;50.852;5.672;2023-04-24T04:04:13;33.80;;;21.20;;
13607;SDS011;6875;50.852;5.672;2023-04-24T04:06:39;33.60;;;22.40;;
13607;SDS011;6875;50.852;5.672;2023-04-24T04:09:06;31.87;;;22.30;;
13607;SDS011;6875;50.852;5.672;2023-04-24T04:11:33;30.70;;;22.30;;
13607;SDS011;6875;50.852;5.672;2023-04-24T04:14:01;31.20;;;21.17;;
13607;SDS011;6875;50.852;5.672;2023-04-24T04:16:28;37.37;;;23.13;;
13607;SDS011;6875;50.852;5.672;2023-04-24T04:18:55;38.37;;;21.70;;
13607;SDS011;6875;50.852;5.672;2023-04-24T04:21:21;35.93;;;21.87;;
13607;SDS011;6875;50.852;5.672;2023-04-24T04:23:48;28.93;;;21.47;;
13607;SDS011;6875;50.852;5.672;2023-04-24T04:26:14;33.60;;;22.67;;
13607;SDS011;6875;50.852;5.672;2023-04-24T04:28:41;28.43;;;21.47;;
13607;SDS011;6875;50.852;5.672;2023-04-24T04:31:11;29.03;;;19.70;;
13607;SDS011;6875;50.852;5.672;2023-04-24T04:33:37;25.20;;;17.50;;
13607;SDS011;6875;50.852;5.672;2023-04-24T04:36:04;24.40;;;16.73;;
13607;SDS011;6875;50.852;5.672;2023-04-24T04:38:31;25.23;;;16.00;;
13607;SDS011;6875;50.852;5.672;2023-04-24T04:40:58;21.43;;;14.83;;
13607;SDS011;6875;50.852;5.672;2023-04-24T04:43:25;21.53;;;14.13;;
13607;SDS011;6875;50.852;5.672;2023-04-24T04:45:51;17.27;;;11.13;;
13607;SDS011;6875;50.852;5.672;2023-04-24T04:48:20;16.03;;;11.07;;
13607;SDS011;6875;50.852;5.672;2023-04-24T04:50:47;15.47;;;10.60;;
13607;SDS011;6875;50.852;5.672;2023-04-24T04:53:14;14.97;;;9.70;;
13607;SDS011;6875;50.852;5.672;2023-04-24T04:55:40;12.93;;;10.33;;
13607;SDS011;6875;50.852;5.672;2023-04-24T04:58:07;14.57;;;10.37;;
13607;SDS011;6875;50.852;5.672;2023-04-24T05:00:33;20.33;;;12.30;;
13607;SDS011;6875;50.852;5.672;2023-04-24T05:03:00;18.10;;;10.80;;
13607;SDS011;6875;50.852;5.672;2023-04-24T05:05:29;22.97;;;12.10;;
13607;SDS011;6875;50.852;5.672;2023-04-24T05:07:55;17.03;;;10.80;;
13607;SDS011;6875;50.852;5.672;2023-04-24T05:10:22;16.70;;;11.57;;
13607;SDS011;6875;50.852;5.672;2023-04-24T05:12:49;16.27;;;10.80;;
13607;SDS011;6875;50.852;5.672;2023-04-24T05:15:15;18.10;;;11.07;;
13607;SDS011;6875;50.852;5.672;2023-04-24T05:17:42;18.53;;;10.40;;
13607;SDS011;6875;50.852;5.672;2023-04-24T05:20:09;12.50;;;8.53;;
13607;SDS011;6875;50.852;5.672;2023-04-24T05:22:37;10.37;;;7.97;;
13607;SDS011;6875;50.852;5.672;2023-04-24T05:25:03;13.90;;;8.83;;
13607;SDS011;6875;50.852;5.672;2023-04-24T05:27:31;15.13;;;8.00;;
13607;SDS011;6875;50.852;5.672;2023-04-24T05:29:57;12.70;;;8.33;;
13607;SDS011;6875;50.852;5.672;2023-04-24T05:32:24;12.13;;;8.00;;
13607;SDS011;6875;50.852;5.672;2023-04-24T05:34:52;9.77;;;7.43;;
13607;SDS011;6875;50.852;5.672;2023-04-24T05:37:18;11.90;;;9.03;;
13607;SDS011;6875;50.852;5.672;2023-04-24T05:39:46;14.80;;;10.23;;
13607;SDS011;6875;50.852;5.672;2023-04-24T05:42:15;9.10;;;7.00;;
13607;SDS011;6875;50.852;5.672;2023-04-24T05:44:42;9.83;;;5.80;;
13607;SDS011;6875;50.852;5.672;2023-04-24T05:47:08;4.77;;;3.70;;
13607;SDS011;6875;50.852;5.672;2023-04-24T05:49:35;5.13;;;3.70;;
13607;SDS011;6875;50.852;5.672;2023-04-24T05:52:01;3.93;;;3.50;;
13607;SDS011;6875;50.852;5.672;2023-04-24T05:54:29;4.23;;;3.13;;
13607;SDS011;6875;50.852;5.672;2023-04-24T05:56:57;2.20;;;1.97;;
13607;SDS011;6875;50.852;5.672;2023-04-24T05:59:24;5.43;;;2.97;;
13607;SDS011;6875;50.852;5.672;2023-04-24T06:01:51;3.17;;;2.10;;
13607;SDS011;6875;50.852;5.672;2023-04-24T06:04:17;5.00;;;1.90;;
13607;SDS011;6875;50.852;5.672;2023-04-24T06:06:44;2.33;;;1.83;;
13607;SDS011;6875;50.852;5.672;2023-04-24T06:09:10;3.00;;;2.40;;
13607;SDS011;6875;50.852;5.672;2023-04-24T06:11:37;2.60;;;2.20;;
13607;SDS011;6875;50.852;5.672;2023-04-24T06:14:05;3.40;;;2.00;;
13607;SDS011;6875;50.852;5.672;2023-04-24T06:16:32;2.40;;;2.00;;
13607;SDS011;6875;50.852;5.672;2023-04-24T06:18:58;3.50;;;2.47;;
13607;SDS011;6875;50.852;5.672;2023-04-24T06:21:25;4.47;;;2.97;;
13607;SDS011;6875;50.852;5.672;2023-04-24T06:23:52;8.10;;;3.57;;
13607;SDS011;6875;50.852;5.672;2023-04-24T06:26:21;9.03;;;4.27;;
13607;SDS011;6875;50.852;5.672;2023-04-24T06:28:49;4.90;;;4.37;;
13607;SDS011;6875;50.852;5.672;2023-04-24T06:31:17;10.20;;;4.70;;
13607;SDS011;6875;50.852;5.672;2023-04-24T06:33:44;6.90;;;4.70;;
13607;SDS011;6875;50.852;5.672;2023-04-24T06:36:10;8.90;;;5.57;;
13607;SDS011;6875;50.852;5.672;2023-04-24T06:38:38;9.43;;;6.00;;
13607;SDS011;6875;50.852;5.672;2023-04-24T06:41:05;11.50;;;8.03;;
13607;SDS011;6875;50.852;5.672;2023-04-24T06:43:31;14.13;;;8.77;;
13607;SDS011;6875;50.852;5.672;2023-04-24T06:45:58;10.47;;;7.37;;
13607;SDS011;6875;50.852;5.672;2023-04-24T06:48:26;13.50;;;9.20;;
13607;SDS011;6875;50.852;5.672;2023-04-24T06:50:53;16.37;;;9.53;;
13607;SDS011;6875;50.852;5.672;2023-04-24T06:53:19;20.20;;;11.57;;
13607;SDS011;6875;50.852;5.672;2023-04-24T06:55:46;17.73;;;9.77;;
13607;SDS011;6875;50.852;5.672;2023-04-24T06:58:13;17.67;;;10.20;;
13607;SDS011;6875;50.852;5.672;2023-04-24T07:00:41;19.80;;;13.13;;
13607;SDS011;6875;50.852;5.672;2023-04-24T07:03:07;15.70;;;10.20;;
13607;SDS011;6875;50.852;5.672;2023-04-24T07:05:36;14.57;;;8.97;;
13607;SDS011;6875;50.852;5.672;2023-04-24T07:08:03;18.87;;;11.10;;
13607;SDS011;6875;50.852;5.672;2023-04-24T07:10:31;22.00;;;13.03;;
13607;SDS011;6875;50.852;5.672;2023-04-24T07:13:00;15.57;;;9.80;;
13607;SDS011;6875;50.852;5.672;2023-04-24T07:15:27;23.50;;;12.00;;
13607;SDS011;6875;50.852;5.672;2023-04-24T07:17:53;29.20;;;13.43;;
13607;SDS011;6875;50.852;5.672;2023-04-24T07:20:20;17.93;;;10.90;;
13607;SDS011;6875;50.852;5.672;2023-04-24T07:22:48;25.23;;;12.03;;
13607;SDS011;6875;50.852;5.672;2023-04-24T07:25:16;23.50;;;13.20;;
13607;SDS011;6875;50.852;5.672;2023-04-24T07:27:43;22.07;;;13.07;;
13607;SDS011;6875;50.852;5.672;2023-04-24T07:30:10;22.17;;;12.17;;
13607;SDS011;6875;50.852;5.672;2023-04-24T07:32:37;22.57;;;13.60;;
13607;SDS011;6875;50.852;5.672;2023-04-24T07:35:04;21.23;;;10.07;;
13607;SDS011;6875;50.852;5.672;2023-04-24T07:37:31;24.03;;;12.40;;
13607;SDS011;6875;50.852;5.672;2023-04-24T07:40:01;24.13;;;10.27;;
13607;SDS011;6875;50.852;5.672;2023-04-24T07:42:28;20.73;;;8.57;;
13607;SDS011;6875;50.852;5.672;2023-04-24T07:44:55;23.43;;;10.03;;
13607;SDS011;6875;50.852;5.672;2023-04-24T07:47:22;23.80;;;9.87;;
13607;SDS011;6875;50.852;5.672;2023-04-24T07:49:49;29.77;;;9.10;;
13607;SDS011;6875;50.852;5.672;2023-04-24T07:52:15;19.47;;;8.13;;
13607;SDS011;6875;50.852;5.672;2023-04-24T07:54:42;20.10;;;9.13;;
13607;SDS011;6875;50.852;5.672;2023-04-24T07:57:10;18.40;;;7.93;;
13607;SDS011;6875;50.852;5.672;2023-04-24T07:59:36;17.40;;;6.27;;
13607;SDS011;6875;50.852;5.672;2023-04-24T08:02:03;21.20;;;7.00;;
13607;SDS011;6875;50.852;5.672;2023-04-24T08:04:31;23.43;;;7.57;;
13607;SDS011;6875;50.852;5.672;2023-04-24T08:06:57;21.40;;;8.57;;
13607;SDS011;6875;50.852;5.672;2023-04-24T08:09:24;13.33;;;5.13;;
13607;SDS011;6875;50.852;5.672;2023-04-24T08:11:50;14.53;;;5.37;;
13607;SDS011;6875;50.852;5.672;2023-04-24T08:14:19;13.23;;;5.50;;
13607;SDS011;6875;50.852;5.672;2023-04-24T08:16:46;8.47;;;3.47;;
13607;SDS011;6875;50.852;5.672;2023-04-24T08:19:13;12.67;;;4.57;;
13607;SDS011;6875;50.852;5.672;2023-04-24T08:21:39;10.63;;;3.60;;
13607;SDS011;6875;50.852;5.672;2023-04-24T08:24:06;10.67;;;3.50;;
13607;SDS011;6875;50.852;5.672;2023-04-24T08:26:33;14.20;;;3.97;;
13607;SDS011;6875;50.852;5.672;2023-04-24T08:29:00;13.57;;;3.97;;
13607;SDS011;6875;50.852;5.672;2023-04-24T08:31:28;15.90;;;4.50;;
13607;SDS011;6875;50.852;5.672;2023-04-24T08:33:54;17.33;;;4.43;;
13607;SDS011;6875;50.852;5.672;2023-04-24T08:36:21;16.60;;;5.17;;
13607;SDS011;6875;50.852;5.672;2023-04-24T08:38:47;16.73;;;5.00;;
13607;SDS011;6875;50.852;5.672;2023-04-24T08:41:14;12.97;;;3.93;;
13607;SDS011;6875;50.852;5.672;2023-04-24T08:43:42;13.60;;;3.30;;
13607;SDS011;6875;50.852;5.672;2023-04-24T08:46:08;10.23;;;3.90;;
13607;SDS011;6875;50.852;5.672;2023-04-24T08:48:37;15.70;;;3.90;;
13607;SDS011;6875;50.852;5.672;2023-04-24T08:51:04;15.20;;;4.30;;
13607;SDS011;6875;50.852;5.672;2023-04-24T08:53:33;8.27;;;3.60;;
13607;SDS011;6875;50.852;5.672;2023-04-24T08:55:59;15.97;;;4.33;;
13607;SDS011;6875;50.852;5.672;2023-04-24T08:58:28;12.43;;;3.20;;
13607;SDS011;6875;50.852;5.672;2023-04-24T09:00:55;14.00;;;3.13;;
13607;SDS011;6875;50.852;5.672;2023-04-24T09:03:22;9.87;;;3.33;;
13607;SDS011;6875;50.852;5.672;2023-04-24T09:05:51;11.97;;;2.87;;
13607;SDS011;6875;50.852;5.672;2023-04-24T09:08:19;6.13;;;2.47;;
13607;SDS011;6875;50.852;5.672;2023-04-24T09:10:46;16.87;;;3.53;;
13607;SDS011;6875;50.852;5.672;2023-04-24T09:13:12;6.93;;;2.90;;
13607;SDS011;6875;50.852;5.672;2023-04-24T09:15:39;11.70;;;2.17;;
13607;SDS011;6875;50.852;5.672;2023-04-24T09:18:06;11.67;;;3.43;;
13607;SDS011;6875;50.852;5.672;2023-04-24T09:20:33;10.60;;;2.97;;
13607;SDS011;6875;50.852;5.672;2023-04-24T09:23:02;9.50;;;2.33;;
13607;SDS011;6875;50.852;5.672;2023-04-24T09:25:31;8.00;;;2.53;;
13607;SDS011;6875;50.852;5.672;2023-04-24T09:28:00;6.00;;;2.50;;
13607;SDS011;6875;50.852;5.672;2023-04-24T09:30:27;7.20;;;2.33;;
13607;SDS011;6875;50.852;5.672;2023-04-24T09:33:09;9.13;;;2.70;;
13607;SDS011;6875;50.852;5.672;2023-04-24T09:35:37;9.97;;;2.97;;
13607;SDS011;6875;50.852;5.672;2023-04-24T09:38:08;7.87;;;2.03;;
13607;SDS011;6875;50.852;5.672;2023-04-24T09:40:34;6.90;;;2.43;;
13607;SDS011;6875;50.852;5.672;2023-04-24T09:43:01;6.70;;;2.20;;
13607;SDS011;6875;50.852;5.672;2023-04-24T09:45:28;9.23;;;2.50;;
13607;SDS011;6875;50.852;5.672;2023-04-24T09:47:57;11.77;;;2.80;;
13607;SDS011;6875;50.852;5.672;2023-04-24T09:50:25;7.10;;;2.40;;
13607;SDS011;6875;50.852;5.672;2023-04-24T09:52:56;6.90;;;2.90;;
13607;SDS011;6875;50.852;5.672;2023-04-24T09:55:25;7.33;;;2.03;;
13607;SDS011;6875;50.852;5.672;2023-04-24T09:57:52;6.10;;;2.37;;
13607;SDS011;6875;50.852;5.672;2023-04-24T10:00:22;12.30;;;2.83;;
13607;SDS011;6875;50.852;5.672;2023-04-24T10:02:50;4.40;;;1.73;;
13607;SDS011;6875;50.852;5.672;2023-04-24T10:05:22;10.43;;;2.00;;
13607;SDS011;6875;50.852;5.672;2023-04-24T10:07:49;5.23;;;1.40;;
13607;SDS011;6875;50.852;5.672;2023-04-24T10:10:16;6.67;;;1.87;;
13607;SDS011;6875;50.852;5.672;2023-04-24T10:12:44;3.23;;;1.40;;
13607;SDS011;6875;50.852;5.672;2023-04-24T10:15:11;5.07;;;2.13;;
13607;SDS011;6875;50.852;5.672;2023-04-24T10:17:38;3.90;;;1.60;;
13607;SDS011;6875;50.852;5.672;2023-04-24T10:20:06;6.77;;;1.97;;
13607;SDS011;6875;50.852;5.672;2023-04-24T10:22:33;3.33;;;1.00;;
13607;SDS011;6875;50.852;5.672;2023-04-24T10:25:00;4.20;;;1.30;;
13607;SDS011;6875;50.852;5.672;2023-04-24T10:27:30;4.63;;;1.43;;
13607;SDS011;6875;50.852;5.672;2023-04-24T10:29:59;4.20;;;1.00;;
13607;SDS011;6875;50.852;5.672;2023-04-24T10:32:26;4.30;;;1.57;;
13607;SDS011;6875;50.852;5.672;2023-04-24T10:34:53;4.70;;;1.10;;
13607;SDS011;6875;50.852;5.672;2023-04-24T10:37:21;4.27;;;1.00;;
13607;SDS011;6875;50.852;5.672;2023-04-24T10:39:48;4.20;;;0.90;;
13607;SDS011;6875;50.852;5.672;2023-04-24T10:42:16;2.40;;;1.20;;
13607;SDS011;6875;50.852;5.672;2023-04-24T10:44:43;5.47;;;1.13;;
13607;SDS011;6875;50.852;5.672;2023-04-24T10:47:13;4.83;;;0.90;;
13607;SDS011;6875;50.852;5.672;2023-04-24T10:49:40;4.13;;;0.97;;
13607;SDS011;6875;50.852;5.672;2023-04-24T10:52:08;1.50;;;0.83;;
13607;SDS011;6875;50.852;5.672;2023-04-24T10:54:36;4.47;;;1.30;;
13607;SDS011;6875;50.852;5.672;2023-04-24T10:57:27;7.67;;;1.13;;
13607;SDS011;6875;50.852;5.672;2023-04-24T11:02:54;5.17;;;0.90;;
13607;SDS011;6875;50.852;5.672;2023-04-24T11:05:22;1.20;;;0.83;;
13607;SDS011;6875;50.852;5.672;2023-04-24T11:10:38;3.33;;;1.10;;
13607;SDS011;6875;50.852;5.672;2023-04-24T11:13:06;2.83;;;1.10;;
13607;SDS011;6875;50.852;5.672;2023-04-24T11:15:33;3.30;;;0.80;;
13607;SDS011;6875;50.852;5.672;2023-04-24T11:18:01;5.43;;;1.43;;
13607;SDS011;6875;50.852;5.672;2023-04-24T11:20:28;2.30;;;1.27;;
13607;SDS011;6875;50.852;5.672;2023-04-24T11:22:54;3.70;;;1.30;;
13607;SDS011;6875;50.852;5.672;2023-04-24T11:25:22;2.80;;;0.90;;
13607;SDS011;6875;50.852;5.672;2023-04-24T11:27:50;4.37;;;1.30;;
13607;SDS011;6875;50.852;5.672;2023-04-24T11:30:17;2.17;;;0.80;;
13607;SDS011;6875;50.852;5.672;2023-04-24T11:32:47;6.50;;;1.47;;
13607;SDS011;6875;50.852;5.672;2023-04-24T11:35:17;2.23;;;1.20;;
13607;SDS011;6875;50.852;5.672;2023-04-24T11:37:45;7.53;;;1.63;;
13607;SDS011;6875;50.852;5.672;2023-04-24T11:40:15;3.50;;;1.40;;
13607;SDS011;6875;50.852;5.672;2023-04-24T11:42:43;3.93;;;1.00;;
13607;SDS011;6875;50.852;5.672;2023-04-24T11:45:11;5.13;;;1.40;;
13607;SDS011;6875;50.852;5.672;2023-04-24T11:47:39;5.00;;;1.00;;
13607;SDS011;6875;50.852;5.672;2023-04-24T11:50:06;4.70;;;1.40;;
13607;SDS011;6875;50.852;5.672;2023-04-24T11:52:38;4.27;;;1.47;;
13607;SDS011;6875;50.852;5.672;2023-04-24T11:55:06;4.33;;;1.10;;
13607;SDS011;6875;50.852;5.672;2023-04-24T11:57:34;2.23;;;1.50;;
13607;SDS011;6875;50.852;5.672;2023-04-24T12:00:01;4.13;;;1.60;;
13607;SDS011;6875;50.852;5.672;2023-04-24T12:02:29;6.47;;;1.67;;
13607;SDS011;6875;50.852;5.672;2023-04-24T12:04:56;7.23;;;1.87;;
13607;SDS011;6875;50.852;5.672;2023-04-24T12:07:23;5.13;;;1.50;;
13607;SDS011;6875;50.852;5.672;2023-04-24T12:09:54;5.27;;;1.50;;
13607;SDS011;6875;50.852;5.672;2023-04-24T12:12:23;4.97;;;1.50;;
13607;SDS011;6875;50.852;5.672;2023-04-24T12:14:54;3.27;;;1.40;;
13607;SDS011;6875;50.852;5.672;2023-04-24T12:17:25;6.57;;;2.10;;
13607;SDS011;6875;50.852;5.672;2023-04-24T12:19:56;5.47;;;1.60;;
13607;SDS011;6875;50.852;5.672;2023-04-24T12:22:23;7.17;;;1.90;;
13607;SDS011;6875;50.852;5.672;2023-04-24T12:25:01;9.53;;;1.83;;
13607;SDS011;6875;50.852;5.672;2023-04-24T12:27:30;5.10;;;1.80;;
13607;SDS011;6875;50.852;5.672;2023-04-24T12:29:58;5.80;;;1.57;;
13607;SDS011;6875;50.852;5.672;2023-04-24T12:32:25;6.33;;;1.43;;
13607;SDS011;6875;50.852;5.672;2023-04-24T12:34:52;4.57;;;1.90;;
13607;SDS011;6875;50.852;5.672;2023-04-24T12:37:19;3.80;;;1.73;;
13607;SDS011;6875;50.852;5.672;2023-04-24T12:40:00;4.03;;;1.63;;
13607;SDS011;6875;50.852;5.672;2023-04-24T12:42:29;7.47;;;1.50;;
13607;SDS011;6875;50.852;5.672;2023-04-24T12:44:56;5.13;;;1.70;;
13607;SDS011;6875;50.852;5.672;2023-04-24T12:47:24;3.87;;;2.00;;
13607;SDS011;6875;50.852;5.672;2023-04-24T12:49:51;8.37;;;2.00;;
13607;SDS011;6875;50.852;5.672;2023-04-24T12:52:18;7.80;;;1.90;;
13607;SDS011;6875;50.852;5.672;2023-04-24T12:54:45;5.97;;;2.00;;
13607;SDS011;6875;50.852;5.672;2023-04-24T12:57:13;5.73;;;1.80;;
13607;SDS011;6875;50.852;5.672;2023-04-24T12:59:40;4.10;;;1.37;;
13607;SDS011;6875;50.852;5.672;2023-04-24T13:02:06;5.07;;;1.60;;
13607;SDS011;6875;50.852;5.672;2023-04-24T13:04:34;3.80;;;1.50;;
13607;SDS011;6875;50.852;5.672;2023-04-24T13:07:01;3.70;;;1.30;;
13607;SDS011;6875;50.852;5.672;2023-04-24T13:09:27;5.13;;;1.60;;
13607;SDS011;6875;50.852;5.672;2023-04-24T13:11:54;5.80;;;1.47;;
13607;SDS011;6875;50.852;5.672;2023-04-24T13:14:22;4.93;;;1.80;;
13607;SDS011;6875;50.852;5.672;2023-04-24T13:16:49;5.20;;;1.93;;
13607;SDS011;6875;50.852;5.672;2023-04-24T13:19:16;6.17;;;1.67;;
13607;SDS011;6875;50.852;5.672;2023-04-24T13:21:43;4.07;;;1.70;;
13607;SDS011;6875;50.852;5.672;2023-04-24T13:24:10;7.30;;;1.87;;
13607;SDS011;6875;50.852;5.672;2023-04-24T13:26:38;4.17;;;2.00;;
13607;SDS011;6875;50.852;5.672;2023-04-24T13:29:04;3.23;;;1.73;;
13607;SDS011;6875;50.852;5.672;2023-04-24T13:31:32;5.50;;;1.97;;
13607;SDS011;6875;50.852;5.672;2023-04-24T13:33:59;5.27;;;1.70;;
13607;SDS011;6875;50.852;5.672;2023-04-24T13:36:26;3.07;;;1.30;;
13607;SDS011;6875;50.852;5.672;2023-04-24T13:38:52;3.50;;;1.03;;
13607;SDS011;6875;50.852;5.672;2023-04-24T13:41:19;5.57;;;1.63;;
13607;SDS011;6875;50.852;5.672;2023-04-24T13:43:45;3.53;;;1.27;;
13607;SDS011;6875;50.852;5.672;2023-04-24T13:46:12;3.60;;;1.20;;
13607;SDS011;6875;50.852;5.672;2023-04-24T13:48:41;3.77;;;1.50;;
13607;SDS011;6875;50.852;5.672;2023-04-24T13:51:08;6.00;;;1.73;;
13607;SDS011;6875;50.852;5.672;2023-04-24T13:53:35;7.37;;;2.03;;
13607;SDS011;6875;50.852;5.672;2023-04-24T13:56:03;5.80;;;2.20;;
13607;SDS011;6875;50.852;5.672;2023-04-24T13:58:30;3.43;;;1.93;;
13607;SDS011;6875;50.852;5.672;2023-04-24T14:00:57;5.07;;;1.87;;
13607;SDS011;6875;50.852;5.672;2023-04-24T14:03:24;6.50;;;1.87;;
13607;SDS011;6875;50.852;5.672;2023-04-24T14:06:04;5.70;;;2.13;;
13607;SDS011;6875;50.852;5.672;2023-04-24T14:08:31;5.63;;;1.90;;
13607;SDS011;6875;50.852;5.672;2023-04-24T14:10:58;5.63;;;2.23;;
13607;SDS011;6875;50.852;5.672;2023-04-24T14:13:24;5.43;;;1.60;;
13607;SDS011;6875;50.852;5.672;2023-04-24T14:15:51;3.03;;;1.67;;
13607;SDS011;6875;50.852;5.672;2023-04-24T14:18:18;7.00;;;2.60;;
13607;SDS011;6875;50.852;5.672;2023-04-24T14:20:45;5.53;;;2.30;;
13607;SDS011;6875;50.852;5.672;2023-04-24T14:23:13;4.80;;;2.10;;
13607;SDS011;6875;50.852;5.672;2023-04-24T14:25:40;8.03;;;2.93;;
13607;SDS011;6875;50.852;5.672;2023-04-24T14:28:06;5.53;;;2.30;;
13607;SDS011;6875;50.852;5.672;2023-04-24T14:30:33;7.83;;;3.20;;
13607;SDS011;6875;50.852;5.672;2023-04-24T14:33:02;10.10;;;1.93;;
13607;SDS011;6875;50.852;5.672;2023-04-24T14:35:29;6.00;;;1.87;;
13607;SDS011;6875;50.852;5.672;2023-04-24T14:37:56;7.03;;;1.70;;
13607;SDS011;6875;50.852;5.672;2023-04-24T14:40:24;6.20;;;2.13;;
13607;SDS011;6875;50.852;5.672;2023-04-24T14:42:51;5.43;;;2.23;;
13607;SDS011;6875;50.852;5.672;2023-04-24T14:45:18;5.23;;;2.33;;
13607;SDS011;6875;50.852;5.672;2023-04-24T14:47:44;7.27;;;2.10;;
13607;SDS011;6875;50.852;5.672;2023-04-24T14:50:12;7.93;;;2.23;;
13607;SDS011;6875;50.852;5.672;2023-04-24T14:52:39;5.73;;;2.57;;
13607;SDS011;6875;50.852;5.672;2023-04-24T14:55:06;9.27;;;2.50;;